Time;durP1;ratioP1;P1;durP2;ratioP2;P2;SDS_P1;SDS_P2;PMS_P1;PMS_P2;Temp;Humidity;BMP_temperature;BMP_pressure;BME280_temperature;BME280_humidity;BME280_pressure;Samples;Min_cycle;Max_cycle;Signal;HPM_P1;HPM_P2
2021/09/03 00:01:40;;;;;;;2.37;1.20;;;;;;;9.25;80.83;99098.23;1889997;76;22527;-56
2021/09/03 00:04:15;;;;;;;3.37;1.40;;;;;;;9.21;81.15;99096.86;1854877;76;27885;-53
2021/09/03 00:06:50;;;;;;;10.05;1.67;;;;;;;9.23;81.21;99096.47;1870696;76;22117;-56
2021/09/03 00:10:07;;;;;;;3.90;1.40;;;;;;;9.20;81.47;99087.41;1884618;75;22626;-54
2021/09/03 00:12:42;;;;;;;6.72;1.70;;;;;;;9.14;81.73;99088.17;1870709;76;22548;-57
2021/09/03 00:15:36;;;;;;;4.40;1.42;;;;;;;9.08;81.89;99091.50;1870618;76;22203;-55
2021/09/03 00:18:12;;;;;;;7.25;1.30;;;;;;;9.03;82.33;99085.80;1870636;76;22109;-58
2021/09/03 00:21:06;;;;;;;4.40;1.32;;;;;;;9.00;82.53;99085.31;1889928;76;22215;-53
2021/09/03 00:23:42;;;;;;;5.87;1.70;;;;;;;8.99;82.72;99094.31;1854690;76;27881;-56
2021/09/03 00:26:19;;;;;;;5.47;1.55;;;;;;;9.03;82.81;99085.41;1890000;76;22225;-56
2021/09/03 00:28:53;;;;;;;9.50;1.95;;;;;;;9.01;82.74;99088.78;1870904;76;20208;-60
2021/09/03 00:31:27;;;;;;;3.45;1.40;;;;;;;8.99;82.87;99086.17;1890003;76;22140;-58
2021/09/03 00:34:02;;;;;;;5.58;1.40;;;;;;;8.97;82.98;99095.98;1870651;76;22136;-52
2021/09/03 00:36:38;;;;;;;3.30;1.40;;;;;;;8.93;83.10;99084.78;1870635;76;22109;-58
2021/09/03 00:39:13;;;;;;;5.80;1.67;;;;;;;8.93;83.17;99082.59;1870707;76;22109;-53
2021/09/03 00:42:12;;;;;;;4.40;1.98;;;;;;;8.91;83.30;99085.16;1889928;76;22119;-53
2021/09/03 00:44:46;;;;;;;4.40;1.37;;;;;;;8.88;83.39;99083.39;1870695;76;22109;-57
2021/09/03 00:47:40;;;;;;;4.70;1.85;;;;;;;8.84;83.49;99088.02;1870737;76;22165;-58
2021/09/03 00:50:15;;;;;;;6.05;1.40;;;;;;;8.80;83.71;99081.48;1870715;76;22547;-53
2021/09/03 00:52:50;;;;;;;4.30;1.85;;;;;;;8.77;83.87;99074.58;1870771;76;22113;-57
2021/09/03 00:55:25;;;;;;;5.17;1.47;;;;;;;8.75;84.07;99081.42;1870645;76;22141;-57
2021/09/03 00:58:21;;;;;;;4.00;1.55;;;;;;;8.73;84.16;99075.38;1870648;76;22563;-58
2021/09/03 01:00:57;;;;;;;2.60;1.30;;;;;;;8.69;84.26;99080.00;1870423;76;22132;-56
2021/09/03 01:03:32;;;;;;;3.52;1.60;;;;;;;8.65;84.49;99079.08;1889954;76;22142;-56
2021/09/03 01:06:26;;;;;;;4.80;1.70;;;;;;;8.61;84.69;99089.27;1870621;76;22148;-54
2021/09/03 01:09:01;;;;;;;6.17;2.10;;;;;;;8.58;84.81;99078.92;1870676;76;22136;-54
2021/09/03 01:11:36;;;;;;;5.10;1.85;;;;;;;8.58;84.88;99086.21;1870686;76;22202;-57
2021/09/03 01:14:11;;;;;;;3.15;1.30;;;;;;;8.57;84.95;99081.02;1870713;76;22158;-54
2021/09/03 01:16:46;;;;;;;5.53;1.55;;;;;;;8.56;85.06;99084.45;1889978;76;22144;-53
2021/09/03 01:19:20;;;;;;;9.55;1.65;;;;;;;8.54;85.18;99087.40;1890034;76;22131;-55
2021/09/03 01:21:55;;;;;;;5.50;1.30;;;;;;;8.51;85.19;99088.63;1870717;76;22132;-53
2021/09/03 01:24:30;;;;;;;5.00;1.50;;;;;;;8.51;85.24;99084.34;1835188;77;22598;-54
2021/09/03 01:27:05;;;;;;;7.40;1.47;;;;;;;8.53;85.18;99079.24;1870697;76;22550;-59
2021/09/03 01:29:59;;;;;;;5.50;1.22;;;;;;;8.55;85.17;99089.12;1870616;76;22544;-55
2021/09/03 01:32:34;;;;;;;3.50;1.50;;;;;;;8.56;85.01;99083.16;1889991;76;22112;-54
2021/09/03 01:35:09;;;;;;;5.05;1.30;;;;;;;8.54;85.06;99080.55;1870720;76;22109;-58
2021/09/03 01:37:46;;;;;;;6.03;1.85;;;;;;;8.52;85.12;99073.20;1870567;76;22280;-53
2021/09/03 01:40:39;;;;;;;5.92;1.75;;;;;;;8.52;85.09;99076.20;1870630;76;22141;-53
2021/09/03 01:43:15;;;;;;;3.72;1.47;;;;;;;8.52;85.11;99080.06;1870718;76;22124;-54
2021/09/03 01:45:50;;;;;;;2.77;1.50;;;;;;;8.52;85.06;99073.63;1870696;76;22547;-57
2021/09/03 01:48:25;;;;;;;2.70;1.07;;;;;;;8.50;85.05;99071.44;1870733;76;22218;-55
2021/09/03 01:51:18;;;;;;;3.17;1.40;;;;;;;8.45;85.17;99068.38;1870641;76;22116;-57
2021/09/03 01:53:53;;;;;;;6.12;1.50;;;;;;;8.41;85.33;99072.98;1870729;76;22112;-55
2021/09/03 01:56:28;;;;;;;5.55;1.30;;;;;;;8.39;85.49;99072.08;1870682;76;22109;-54
2021/09/03 01:59:03;;;;;;;4.78;1.60;;;;;;;8.39;85.61;99071.19;1870687;76;22109;-56
2021/09/03 02:01:57;;;;;;;4.37;1.62;;;;;;;8.40;85.57;99072.97;1890056;76;22533;-52
2021/09/03 02:04:32;;;;;;;7.22;1.50;;;;;;;8.38;85.63;99072.89;1870676;76;22560;-59
2021/09/03 02:07:07;;;;;;;7.85;2.05;;;;;;;8.35;85.75;99076.70;1870707;76;22548;-56
2021/09/03 02:10:02;;;;;;;4.45;1.60;;;;;;;8.33;85.87;99072.35;1870628;76;22148;-55
2021/09/03 02:12:56;;;;;;;3.45;1.47;;;;;;;8.29;86.15;99067.97;1870659;76;22125;-54
2021/09/03 02:15:32;;;;;;;4.45;1.60;;;;;;;8.28;86.28;99070.96;1870688;76;22553;-57
2021/09/03 02:18:06;;;;;;;7.65;1.82;;;;;;;8.28;86.32;99073.53;1854836;76;27899;-55
2021/09/03 02:20:41;;;;;;;5.35;1.75;;;;;;;8.31;86.34;99076.16;1870663;76;22113;-52
2021/09/03 02:23:35;;;;;;;4.55;2.00;;;;;;;8.32;86.50;99074.45;1870615;76;22120;-59
2021/09/03 02:26:10;;;;;;;5.90;1.80;;;;;;;8.32;86.69;99072.78;1870783;76;22108;-56
2021/09/03 02:28:45;;;;;;;9.38;2.08;;;;;;;8.34;86.74;99072.37;1870660;76;22523;-57
2021/09/03 02:31:20;;;;;;;4.47;1.80;;;;;;;8.35;86.94;99073.26;1889977;76;22186;-59
2021/09/03 02:33:55;;;;;;;12.33;2.25;;;;;;;8.33;87.05;99078.78;1870679;76;22145;-54
2021/09/03 02:36:31;;;;;;;4.20;1.60;;;;;;;8.30;87.25;99073.58;1870484;76;22160;-56
2021/09/03 02:39:06;;;;;;;5.05;2.10;;;;;;;8.26;87.43;99077.77;1870672;76;22112;-55
2021/09/03 02:41:41;;;;;;;5.85;2.05;;;;;;;8.21;87.62;99074.23;1870679;76;22113;-56
2021/09/03 02:44:17;;;;;;;5.45;1.82;;;;;;;8.19;87.88;99074.60;1870682;76;22133;-55
2021/09/03 02:46:51;;;;;;;4.75;2.00;;;;;;;8.19;87.97;99082.31;1854769;76;38375;-58
2021/09/03 02:49:46;;;;;;;4.47;1.60;;;;;;;8.24;88.08;99083.28;1870544;76;22141;-54
2021/09/03 02:52:22;;;;;;;5.58;1.90;;;;;;;8.19;88.10;99082.31;1854621;76;27887;-54
2021/09/03 02:54:57;;;;;;;5.58;2.08;;;;;;;8.26;88.19;99077.77;1870674;76;22580;-54
2021/09/03 02:57:32;;;;;;;4.83;2.00;;;;;;;8.25;88.17;99075.62;1889993;76;22135;-55
2021/09/03 03:00:27;;;;;;;7.08;2.00;;;;;;;8.22;88.20;99079.41;1876457;75;22202;-58
2021/09/03 03:03:11;;;;;;;5.22;1.75;;;;;;;8.17;88.19;99079.73;1870588;76;22544;-57
2021/09/03 03:06:11;;;;;;;5.37;2.17;;;;;;;8.14;88.34;99080.06;1890026;76;22184;-58
2021/09/03 03:09:04;;;;;;;6.40;2.00;;;;;;;8.10;88.49;99076.56;1870696;76;22168;-56
2021/09/03 03:11:58;;;;;;;8.15;2.22;;;;;;;8.09;88.63;99076.13;1870605;76;22141;-58
2021/09/03 03:14:33;;;;;;;6.83;2.27;;;;;;;8.10;88.70;99083.41;1890098;76;22167;-53
2021/09/03 03:17:07;;;;;;;5.40;2.40;;;;;;;8.07;88.77;99078.21;1870653;76;22575;-56
2021/09/03 03:19:42;;;;;;;8.50;2.02;;;;;;;8.05;88.85;99080.31;1870657;76;22129;-55
2021/09/03 03:22:46;;;;;;;6.05;2.20;;;;;;;8.04;88.93;99092.72;1869799;76;22160;-59
2021/09/03 03:25:21;;;;;;;6.37;1.90;;;;;;;8.03;89.07;99091.39;1870707;76;22136;-57
2021/09/03 03:28:15;;;;;;;6.12;1.92;;;;;;;8.04;89.09;99086.30;1870586;76;22587;-56
2021/09/03 03:30:50;;;;;;;8.50;2.15;;;;;;;8.03;89.07;99088.39;1870700;76;22524;-53
2021/09/03 03:33:44;;;;;;;6.12;2.15;;;;;;;8.00;89.10;99084.47;1870616;76;22141;-59
2021/09/03 03:36:18;;;;;;;8.80;2.37;;;;;;;7.97;89.12;99083.12;1870707;76;22101;-55
2021/09/03 03:38:54;;;;;;;11.50;2.15;;;;;;;7.94;89.21;99090.77;1870705;76;22097;-54
2021/09/03 03:41:29;;;;;;;6.22;2.25;;;;;;;7.92;89.37;99089.00;1854872;76;27878;-58
2021/09/03 03:44:22;;;;;;;9.35;2.12;;;;;;;8.00;89.47;99089.61;1835138;77;22165;-56
2021/09/03 03:46:57;;;;;;;9.43;2.20;;;;;;;8.02;89.50;99082.81;1889976;76;22200;-56
2021/09/03 03:49:32;;;;;;;4.92;2.20;;;;;;;8.05;89.50;99088.02;1870781;76;22567;-56
2021/09/03 03:52:27;;;;;;;6.97;2.15;;;;;;;8.04;89.56;99090.16;1870654;76;22109;-58
2021/09/03 03:55:02;;;;;;;9.18;3.02;;;;;;;8.06;89.55;99090.17;1870684;76;22789;-59
2021/09/03 03:57:37;;;;;;;6.25;2.58;;;;;;;8.11;89.52;99095.42;1870693;76;22105;-56
2021/09/03 04:00:14;;;;;;;6.85;2.80;;;;;;;8.15;89.40;99094.67;1889981;76;22112;-56
2021/09/03 04:03:08;;;;;;;6.80;2.12;;;;;;;8.21;89.26;99096.08;1873874;76;28360;-58
2021/09/03 04:06:01;;;;;;;7.42;2.55;;;;;;;8.30;89.10;99092.86;1889888;76;22144;-56
2021/09/03 04:08:37;;;;;;;13.20;3.25;;;;;;;8.30;88.93;99087.30;1889956;76;22555;-56
2021/09/03 04:11:12;;;;;;;13.22;3.47;;;;;;;8.33;88.90;99091.21;1870695;76;22153;-57
2021/09/03 04:13:46;;;;;;;8.83;2.30;;;;;;;8.38;88.81;99096.03;1870669;76;22571;-62
2021/09/03 04:16:40;;;;;;;11.63;3.05;;;;;;;8.43;88.60;99090.61;1870679;76;22112;-57
2021/09/03 04:19:15;;;;;;;6.53;2.40;;;;;;;8.45;88.45;99093.23;1889950;76;22108;-57
2021/09/03 04:21:51;;;;;;;6.97;2.20;;;;;;;8.50;88.31;99092.91;1870438;76;22144;-56
2021/09/03 04:24:45;;;;;;;9.65;2.60;;;;;;;8.54;88.11;99097.27;1870639;76;22112;-57
2021/09/03 04:27:19;;;;;;;6.83;2.80;;;;;;;8.59;87.97;99087.08;1870754;76;22141;-57
2021/09/03 04:29:56;;;;;;;4.67;2.20;;;;;;;8.64;87.76;99092.76;1870389;76;22200;-56
2021/09/03 04:32:31;;;;;;;5.42;1.95;;;;;;;8.68;87.53;99089.42;1870629;76;22171;-56
2021/09/03 04:35:10;;;;;;;5.37;2.00;;;;;;;8.73;87.30;99089.52;1889953;76;22135;-60
2021/09/03 04:37:46;;;;;;;7.55;2.27;;;;;;;8.75;87.12;99091.72;1870723;76;22133;-55
2021/09/03 04:40:21;;;;;;;5.90;2.15;;;;;;;8.80;86.94;99087.53;1870673;76;22105;-56
2021/09/03 04:43:17;;;;;;;7.92;2.42;;;;;;;8.89;86.80;99089.41;1889940;76;22112;-58
2021/09/03 04:46:10;;;;;;;6.50;2.08;;;;;;;8.99;86.39;99089.17;1870343;76;22145;-57
2021/09/03 04:48:45;;;;;;;6.05;2.40;;;;;;;9.07;86.34;99091.46;1864695;76;22160;-58
2021/09/03 04:51:27;;;;;;;4.55;2.20;;;;;;;9.18;85.84;99095.09;1889760;76;22186;-56
2021/09/03 04:54:02;;;;;;;8.18;2.17;;;;;;;9.29;85.63;99092.73;1889932;76;22136;-60
2021/09/03 04:56:57;;;;;;;6.37;2.02;;;;;;;9.49;85.03;99090.48;1870492;76;22250;-60
2021/09/03 04:59:34;;;;;;;7.37;2.20;;;;;;;10.77;84.17;99098.45;1870703;76;22128;-58
2021/09/03 05:02:28;;;;;;;5.42;2.08;;;;;;;13.02;77.21;99096.77;1870557;76;22541;-58
2021/09/03 05:05:05;;;;;;;4.83;1.60;;;;;;;14.88;68.81;99090.23;1889984;76;22112;-55
2021/09/03 05:08:00;;;;;;;6.87;1.95;;;;;;;16.62;63.60;99094.54;1870448;76;22121;-60
2021/09/03 05:10:35;;;;;;;5.37;1.70;;;;;;;18.41;57.68;99101.47;1870606;76;22194;-58
2021/09/03 05:13:09;;;;;;;6.10;1.80;;;;;;;19.92;51.69;99108.75;1853280;76;22168;-59
2021/09/03 05:15:46;;;;;;;4.80;1.60;;;;;;;20.73;48.67;99114.95;1817579;77;22212;-61
2021/09/03 05:18:41;;;;;;;6.03;1.50;;;;;;;21.77;45.07;99119.73;1851390;76;23010;-57
2021/09/03 05:21:16;;;;;;;2.58;1.20;;;;;;;22.46;43.19;99124.02;1862308;76;22135;-60
2021/09/03 05:24:12;;;;;;;4.97;1.70;;;;;;;23.62;40.23;99114.04;1854495;76;29855;-59
2021/09/03 05:26:54;;;;;;;4.30;1.40;;;;;;;24.20;38.38;99117.41;1889871;76;22187;-62
2021/09/03 05:29:28;;;;;;;2.83;1.12;;;;;;;24.75;36.80;99120.77;1889923;76;22606;-60
2021/09/03 05:32:05;;;;;;;6.37;1.40;;;;;;;25.35;35.55;99124.22;1874003;76;27948;-58
2021/09/03 05:35:00;;;;;;;4.05;1.40;;;;;;;26.34;34.30;99126.91;1853575;76;28319;-60
2021/09/03 05:37:42;;;;;;;9.53;1.75;;;;;;;27.26;32.28;99137.98;1851136;76;22594;-57
2021/09/03 05:40:17;;;;;;;4.28;1.37;;;;;;;27.74;31.39;99132.20;1843915;76;28419;-59
2021/09/03 05:42:52;;;;;;;3.10;1.27;;;;;;;27.43;30.97;99129.95;1862329;76;22093;-60
2021/09/03 05:45:27;;;;;;;4.47;1.37;;;;;;;27.52;31.58;99130.38;1864168;76;22179;-56
2021/09/03 05:48:22;;;;;;;3.08;1.22;;;;;;;28.71;30.11;99128.75;1870467;76;22055;-61
2021/09/03 05:50:57;;;;;;;4.08;1.57;;;;;;;29.43;28.91;99126.91;1890022;76;22223;-56
2021/09/03 05:53:32;;;;;;;4.95;1.82;;;;;;;30.23;27.98;99134.17;1870618;76;22058;-56
2021/09/03 05:56:25;;;;;;;4.22;0.85;;;;;;;30.87;26.63;99141.79;1861275;76;22102;-61
2021/09/03 05:59:02;;;;;;;4.22;1.20;;;;;;;31.33;26.14;99149.18;1848549;76;22286;-60
2021/09/03 06:01:38;;;;;;;3.42;1.00;;;;;;;32.08;24.93;99146.86;1855991;76;22258;-60
2021/09/03 06:04:33;;;;;;;4.50;1.40;;;;;;;32.58;24.26;99144.87;1854527;76;27882;-58
2021/09/03 06:07:08;;;;;;;3.52;1.15;;;;;;;33.01;23.73;99149.53;1890032;76;22151;-55
2021/09/03 06:09:43;;;;;;;5.35;1.00;;;;;;;33.51;22.88;99153.19;1869470;76;22189;-58
2021/09/03 06:12:25;;;;;;;2.27;0.98;;;;;;;33.57;22.66;99153.20;1872132;76;22110;-59
2021/09/03 06:15:19;;;;;;;2.35;0.90;;;;;;;33.85;22.35;99153.97;1866919;76;22354;-59
2021/09/03 06:18:13;;;;;;;3.25;1.00;;;;;;;33.89;21.58;99152.75;1842915;76;22620;-57
2021/09/03 06:20:47;;;;;;;1.15;0.68;;;;;;;33.15;22.15;99145.78;1866403;76;22519;-57
2021/09/03 06:23:42;;;;;;;2.55;0.90;;;;;;;32.47;22.80;99149.33;1863179;76;22070;-58
2021/09/03 06:26:17;;;;;;;2.63;1.00;;;;;;;32.30;23.15;99154.12;1854871;76;27867;-54
2021/09/03 06:29:36;;;;;;;3.47;0.88;;;;;;;32.94;22.12;99154.15;1860283;76;22143;-59
2021/09/03 06:31:54;;;;;;;1.90;0.82;;;;;;;32.28;22.76;99139.17;1889954;76;22077;-56
2021/09/03 06:35:02;;;;;;;2.80;0.90;;;;;;;31.96;23.12;99140.64;1851927;76;22721;-59
2021/09/03 06:37:56;;;;;;;2.10;0.90;;;;;;;31.89;23.43;99144.70;1889515;76;22081;-60
2021/09/03 06:40:49;;;;;;;3.77;1.07;;;;;;;31.63;23.89;99140.45;1870455;76;22090;-53
2021/09/03 06:43:46;;;;;;;3.80;1.00;;;;;;;32.39;23.34;99136.55;1860377;76;22110;-58
2021/09/03 06:46:20;;;;;;;4.03;0.98;;;;;;;33.23;22.69;99143.37;1887303;76;22073;-60
2021/09/03 06:49:14;;;;;;;3.27;1.07;;;;;;;33.90;21.78;99143.73;1855869;76;22258;-60
2021/09/03 06:51:50;;;;;;;4.03;1.20;;;;;;;34.14;21.36;99146.70;1836821;76;28408;-56
2021/09/03 06:54:44;;;;;;;7.80;0.72;;;;;;;34.10;21.22;99143.94;1856603;76;22152;-59
2021/09/03 06:57:18;;;;;;;4.70;0.80;;;;;;;34.04;21.30;99144.40;1870406;76;22074;-60
2021/09/03 07:00:14;;;;;;;3.05;0.80;;;;;;;34.11;21.37;99145.13;1854549;76;22145;-62
2021/09/03 07:02:48;;;;;;;3.37;1.00;;;;;;;34.47;21.11;99146.16;1835523;76;27882;-58
2021/09/03 07:05:29;;;;;;;2.98;1.10;;;;;;;35.03;20.73;99148.98;1850559;76;22152;-59
2021/09/03 07:08:10;;;;;;;1.82;0.78;;;;;;;35.12;20.62;99147.71;1849683;76;22582;-63
2021/09/03 07:10:45;;;;;;;3.05;0.95;;;;;;;34.61;20.71;99152.58;1862489;76;22070;-61
2021/09/03 07:13:39;;;;;;;2.60;0.85;;;;;;;34.75;20.61;99148.20;1889632;76;22148;-58
2021/09/03 07:16:15;;;;;;;4.22;0.82;;;;;;;35.52;20.12;99157.59;1879398;76;22160;-59
2021/09/03 07:19:08;;;;;;;2.00;0.60;;;;;;;36.04;19.41;99152.87;1852962;76;22282;-58
2021/09/03 07:21:49;;;;;;;2.95;0.70;;;;;;;36.49;19.08;99153.66;1850508;76;22137;-60
2021/09/03 07:24:24;;;;;;;2.50;0.82;;;;;;;36.81;18.49;99145.73;1870253;76;22250;-60
2021/09/03 07:26:59;;;;;;;2.65;0.75;;;;;;;36.49;18.74;99152.30;1853775;76;22225;-62
2021/09/03 07:29:35;;;;;;;2.17;0.88;;;;;;;36.27;18.66;99142.70;1855967;76;22066;-58
2021/09/03 07:32:35;;;;;;;3.55;0.70;;;;;;;35.32;19.46;99147.79;1860545;76;22497;-55
2021/09/03 07:35:12;;;;;;;1.02;0.40;;;;;;;34.35;20.28;99136.86;1851809;76;22121;-60
2021/09/03 07:37:46;;;;;;;2.98;0.68;;;;;;;34.47;20.45;99134.11;1852278;76;22054;-62
2021/09/03 07:40:40;;;;;;;1.52;0.53;;;;;;;33.79;20.74;99133.07;1851443;76;22109;-61
2021/09/03 07:43:16;;;;;;;3.55;0.72;;;;;;;33.73;20.88;99131.72;1866394;76;22082;-62
2021/09/03 07:45:51;;;;;;;4.15;0.60;;;;;;;33.33;21.44;99120.75;1840931;76;38280;-62
2021/09/03 07:48:26;;;;;;;1.57;0.50;;;;;;;32.89;21.70;99122.42;1862717;76;22765;-63
2021/09/03 07:51:20;;;;;;;1.65;0.70;;;;;;;33.04;22.05;99116.37;1879578;76;22099;-60
2021/09/03 07:54:01;;;;;;;4.35;0.90;;;;;;;32.61;22.06;99105.88;1867096;76;22172;-61
2021/09/03 07:56:35;;;;;;;3.33;0.95;;;;;;;31.88;22.90;99115.44;1855957;76;22168;-60
2021/09/03 07:59:10;;;;;;;2.22;0.50;;;;;;;31.20;23.53;99113.70;1845059;76;22100;-56
2021/09/03 08:01:51;;;;;;;1.37;0.78;;;;;;;31.01;23.95;99103.97;1844907;76;22144;-60
2021/09/03 08:04:25;;;;;;;2.95;0.70;;;;;;;31.29;24.03;99091.69;1850709;76;22618;-61
2021/09/03 08:07:00;;;;;;;1.42;0.60;;;;;;;31.27;24.06;99089.64;1864738;76;22303;-59
2021/09/03 08:09:35;;;;;;;1.07;0.60;;;;;;;31.05;23.87;99093.47;1865524;76;22105;-60
2021/09/03 08:12:11;;;;;;;1.90;0.60;;;;;;;30.71;24.21;99074.52;1867879;76;22132;-61
2021/09/03 08:14:46;;;;;;;3.50;0.85;;;;;;;29.53;25.39;99077.98;1839169;76;27989;-63
2021/09/03 08:17:39;;;;;;;2.47;1.00;;;;;;;28.72;26.70;99073.34;1847905;76;22695;-60
2021/09/03 08:20:15;;;;;;;2.72;0.70;;;;;;;27.75;27.39;99060.97;1855070;76;31773;-66
2021/09/03 08:23:09;;;;;;;1.40;0.60;;;;;;;26.92;28.72;99066.06;1870711;76;22086;-58
2021/09/03 08:25:51;;;;;;;1.98;0.70;;;;;;;26.23;29.49;99072.34;1850732;77;22230;-59
2021/09/03 08:28:26;;;;;;;4.55;0.88;;;;;;;24.98;31.27;99039.20;1850064;76;22161;-65
2021/09/03 08:31:01;;;;;;;7.28;0.80;;;;;;;23.09;34.22;99049.38;1870657;76;22062;-62
2021/09/03 08:33:36;;;;;;;3.45;0.93;;;;;;;22.50;35.78;99053.31;1889825;76;22488;-57
2021/09/03 08:36:12;;;;;;;3.27;0.80;;;;;;;22.08;36.42;99051.27;1873841;76;28256;-62
2021/09/03 08:38:47;;;;;;;4.97;1.25;;;;;;;22.51;36.14;99035.29;1879613;76;22665;-60
2021/09/03 08:41:23;;;;;;;3.55;0.70;;;;;;;22.94;36.15;99043.36;1870520;76;22051;-57
2021/09/03 08:43:59;;;;;;;3.98;0.93;;;;;;;23.56;35.07;99043.13;1872452;76;20115;-60
2021/09/03 08:46:54;;;;;;;2.30;0.72;;;;;;;24.27;34.37;99038.41;1868727;76;22155;-62
2021/09/03 08:49:54;;;;;;;1.95;0.65;;;;;;;24.69;33.25;99039.63;1851264;76;22210;-59
2021/09/03 08:52:35;;;;;;;2.62;0.70;;;;;;;25.18;32.44;99039.16;1851652;76;22342;-58
2021/09/03 08:55:11;;;;;;;4.40;0.70;;;;;;;25.49;32.51;99041.19;1839375;76;27879;-59
2021/09/03 08:58:06;;;;;;;4.30;0.90;;;;;;;26.41;31.07;99038.33;1861061;76;22129;-59
2021/09/03 09:00:44;;;;;;;3.83;0.78;;;;;;;26.75;30.29;99049.31;1850070;76;22255;-60
2021/09/03 09:03:19;;;;;;;3.50;0.80;;;;;;;26.86;30.07;99038.13;1816922;77;22137;-60
2021/09/03 09:06:25;;;;;;;3.00;0.90;;;;;;;26.62;29.99;99042.50;1865881;76;22220;-61
2021/09/03 09:09:25;;;;;;;3.15;0.78;;;;;;;25.28;31.84;99038.25;1851893;76;22256;-57
2021/09/03 09:12:20;;;;;;;5.15;0.90;;;;;;;23.95;34.23;99027.48;1867242;76;22235;-60
2021/09/03 09:15:14;;;;;;;2.95;0.90;;;;;;;23.22;35.57;99025.21;1853782;76;22302;-62
2021/09/03 09:17:54;;;;;;;2.72;0.80;;;;;;;22.46;36.50;99024.55;1863823;76;22237;-56
2021/09/03 09:20:34;;;;;;;2.85;0.95;;;;;;;21.93;37.38;99025.52;1853807;76;22165;-61
2021/09/03 09:23:57;;;;;;;2.15;0.88;;;;;;;21.18;39.10;99022.23;1868753;76;22619;-61
2021/09/03 09:26:54;;;;;;;3.22;1.17;;;;;;;20.35;40.87;99011.55;1852769;76;22177;-60
2021/09/03 09:29:33;;;;;;;2.50;0.90;;;;;;;19.92;42.21;99008.78;1855925;76;22129;-60
2021/09/03 09:32:15;;;;;;;5.22;0.80;;;;;;;19.84;42.97;99005.94;1868495;76;22231;-60
2021/09/03 09:35:19;;;;;;;3.90;1.00;;;;;;;19.68;43.29;98988.46;1863780;76;22203;-56
2021/09/03 09:37:57;;;;;;;2.25;0.90;;;;;;;19.64;43.74;99003.80;1861114;76;22156;-57
2021/09/03 09:41:00;;;;;;;3.25;0.90;;;;;;;20.02;43.24;98991.04;1853511;76;22207;-59
2021/09/03 09:43:43;;;;;;;1.60;0.57;;;;;;;20.26;42.64;98998.70;1852443;76;22201;-56
2021/09/03 09:46:21;;;;;;;3.33;0.80;;;;;;;20.67;42.25;98986.64;1852467;76;22165;-58
2021/09/03 09:49:16;;;;;;;3.22;1.12;;;;;;;20.58;41.32;98993.89;1865194;76;22635;-60
2021/09/03 09:51:50;;;;;;;2.90;1.00;;;;;;;20.46;41.83;98986.80;1852306;76;22152;-60
2021/09/03 09:54:26;;;;;;;2.08;0.70;;;;;;;20.25;42.45;98989.55;1855496;76;22152;-53
2021/09/03 09:57:05;;;;;;;2.98;1.05;;;;;;;20.22;43.16;98994.88;1836651;76;28464;-57
2021/09/03 09:59:41;;;;;;;4.20;1.10;;;;;;;20.28;42.70;98986.87;1852784;76;22152;-57
2021/09/03 10:02:43;;;;;;;2.50;1.22;;;;;;;20.31;42.39;98978.91;1855623;76;22213;-59
2021/09/03 10:05:24;;;;;;;3.00;1.07;;;;;;;20.03;41.63;98980.98;1853923;76;22245;-57
2021/09/03 10:08:26;;;;;;;2.40;1.17;;;;;;;19.78;42.54;98976.85;1860748;76;22211;-60
2021/09/03 10:11:21;;;;;;;4.55;1.10;;;;;;;19.84;43.38;98959.66;1854008;76;22603;-61
2021/09/03 10:14:20;;;;;;;4.00;1.25;;;;;;;19.75;43.55;98976.09;1853236;76;22226;-58
2021/09/03 10:17:14;;;;;;;3.98;1.20;;;;;;;19.85;42.89;98971.86;1865354;76;22551;-57
2021/09/03 10:19:52;;;;;;;3.33;1.15;;;;;;;19.82;42.09;98960.59;1854900;76;22160;-61
2021/09/03 10:22:41;;;;;;;4.60;1.30;;;;;;;19.73;42.33;98959.94;1852034;76;22565;-56
2021/09/03 10:25:17;;;;;;;4.55;1.20;;;;;;;19.80;43.02;98955.88;1852177;76;22219;-60
2021/09/03 10:28:26;;;;;;;5.33;1.47;;;;;;;19.79;42.37;98952.83;1867504;76;22211;-55
2021/09/03 10:31:19;;;;;;;6.70;1.42;;;;;;;19.59;43.24;98945.03;1844189;76;22155;-57
2021/09/03 10:33:55;;;;;;;4.35;1.55;;;;;;;19.51;43.49;98937.80;1870019;76;22129;-60
2021/09/03 10:36:57;;;;;;;2.95;1.10;;;;;;;19.25;42.71;98927.55;1870687;76;22577;-59
2021/09/03 10:39:55;;;;;;;3.50;1.40;;;;;;;19.03;43.63;98949.88;1870661;76;22108;-60
2021/09/03 10:42:49;;;;;;;5.25;1.50;;;;;;;19.02;44.43;98942.95;1869789;76;22572;-62
2021/09/03 10:45:43;;;;;;;8.65;1.80;;;;;;;19.19;44.50;98942.09;1870406;76;22197;-58
2021/09/03 10:48:37;;;;;;;6.87;1.80;;;;;;;19.44;43.75;98937.58;1859686;76;28062;-56
2021/09/03 10:51:12;;;;;;;6.50;1.98;;;;;;;19.58;43.76;98944.60;1866827;76;22196;-60
2021/09/03 10:53:47;;;;;;;3.27;1.22;;;;;;;19.76;44.24;98938.52;1850537;76;23376;-58
2021/09/03 10:56:34;;;;;;;4.30;1.60;;;;;;;19.61;43.07;98927.50;1850768;76;22212;-59
2021/09/03 10:59:36;;;;;;;3.27;1.42;;;;;;;19.25;42.93;98922.31;1850312;76;22275;-56
2021/09/03 11:02:13;;;;;;;7.12;2.05;;;;;;;19.21;43.40;98931.16;1870396;76;22240;-57
2021/09/03 11:05:00;;;;;;;4.80;1.52;;;;;;;19.24;43.85;98928.91;1869485;76;22160;-60
2021/09/03 11:07:54;;;;;;;4.70;1.50;;;;;;;19.36;44.45;98925.11;1889479;76;22215;-62
2021/09/03 11:10:47;;;;;;;4.47;1.67;;;;;;;19.29;44.56;98929.66;1843089;76;22189;-60
2021/09/03 11:13:49;;;;;;;5.97;1.72;;;;;;;19.29;44.23;98924.42;1869369;76;22603;-64
2021/09/03 11:16:43;;;;;;;4.55;1.42;;;;;;;19.25;44.43;98922.77;1862929;76;22185;-59
2021/09/03 11:19:25;;;;;;;7.42;1.80;;;;;;;19.28;43.92;98906.98;1843335;76;22184;-60
2021/09/03 11:22:08;;;;;;;9.85;1.85;;;;;;;19.52;44.03;98912.91;1870326;76;22560;-64
2021/09/03 11:25:07;;;;;;;6.40;1.72;;;;;;;19.96;43.36;98913.94;1889454;76;22148;-58
2021/09/03 11:28:03;;;;;;;3.50;1.40;;;;;;;20.14;43.40;98898.16;1869303;76;22208;-58
2021/09/03 11:31:02;;;;;;;3.55;1.60;;;;;;;20.39;43.22;98902.22;1870004;76;22216;-61
2021/09/03 11:33:46;;;;;;;5.33;1.60;;;;;;;20.24;42.11;98900.06;1867788;76;22160;-65
2021/09/03 11:36:47;;;;;;;7.30;1.72;;;;;;;19.87;42.62;98896.73;1886429;76;22785;-58
2021/09/03 11:39:42;;;;;;;5.42;1.77;;;;;;;19.71;43.28;98893.66;1866017;76;22614;-65
2021/09/03 11:42:48;;;;;;;4.22;2.00;;;;;;;19.79;43.40;98893.91;1883727;76;22208;-58
2021/09/03 11:45:27;;;;;;;5.90;1.50;;;;;;;20.00;43.43;98872.80;1878892;76;22263;-59
2021/09/03 11:48:06;;;;;;;5.00;2.08;;;;;;;20.19;42.72;98878.38;1853317;76;22180;-61
2021/09/03 11:50:46;;;;;;;4.28;1.50;;;;;;;20.39;42.70;98883.41;1851815;76;22116;-63
2021/09/03 11:53:39;;;;;;;4.08;1.50;;;;;;;20.38;42.13;98886.11;1870724;76;22576;-58
2021/09/03 11:56:33;;;;;;;3.42;1.47;;;;;;;20.29;41.57;98871.49;1868365;76;22543;-55
2021/09/03 11:59:09;;;;;;;4.00;1.57;;;;;;;20.26;42.10;98868.13;1889944;76;22159;-60
2021/09/03 12:01:44;;;;;;;5.15;1.87;;;;;;;20.24;43.13;98856.82;1831340;76;28017;-62
2021/09/03 12:04:20;;;;;;;7.22;2.20;;;;;;;20.41;42.55;98867.66;1854193;76;27924;-60
2021/09/03 12:06:55;;;;;;;6.43;2.03;;;;;;;20.71;42.39;98863.69;1854399;76;27927;-63
2021/09/03 12:09:55;;;;;;;5.45;1.65;;;;;;;20.96;40.65;98863.75;1863606;76;22215;-65
2021/09/03 12:12:30;;;;;;;4.22;2.05;;;;;;;20.94;40.45;98862.52;1870269;76;22133;-57
2021/09/03 12:15:27;;;;;;;4.28;1.80;;;;;;;20.70;40.90;98850.18;1870124;76;22149;-64
2021/09/03 12:18:05;;;;;;;6.03;1.65;;;;;;;20.45;41.57;98846.98;1870273;76;22594;-58
2021/09/03 12:20:45;;;;;;;4.95;1.67;;;;;;;20.47;41.95;98862.21;1889543;76;22140;-58
2021/09/03 12:23:50;;;;;;;7.42;2.05;;;;;;;20.50;42.68;98846.84;1889537;76;22196;-63
2021/09/03 12:26:49;;;;;;;5.87;1.90;;;;;;;20.32;42.64;98853.51;1836674;77;22745;-64
2021/09/03 12:29:31;;;;;;;4.28;1.40;;;;;;;20.13;42.46;98858.00;1870320;76;22622;-61
2021/09/03 12:32:25;;;;;;;6.70;1.62;;;;;;;20.20;42.45;98856.49;1889632;76;22151;-62
2021/09/03 12:35:30;;;;;;;6.90;1.98;;;;;;;20.34;42.24;98847.77;1865660;76;22624;-63
2021/09/03 12:38:42;;;;;;;3.22;1.40;;;;;;;20.27;42.40;98853.64;1866513;75;22188;-60
2021/09/03 12:41:21;;;;;;;3.58;1.55;;;;;;;20.31;42.13;98840.86;1874724;76;22562;-64
2021/09/03 12:44:12;;;;;;;3.90;1.50;;;;;;;20.41;41.85;98841.91;1889666;76;22618;-62
2021/09/03 12:47:03;;;;;;;5.05;1.62;;;;;;;20.52;41.24;98835.86;1870138;76;22136;-56
2021/09/03 12:50:10;;;;;;;3.85;1.87;;;;;;;20.68;41.19;98829.70;1870204;76;22140;-63
2021/09/03 12:53:00;;;;;;;5.03;2.00;;;;;;;20.79;41.09;98828.91;1889655;76;22144;-63
2021/09/03 12:55:35;;;;;;;5.75;2.00;;;;;;;20.75;41.46;98824.20;1839680;76;22179;-63